createdAt,value
2023-05-09T00:01:15.744Z,22
2023-05-09T00:07:09.118Z,21.6
2023-05-09T00:13:01.828Z,22.8
2023-05-09T00:18:53.371Z,23
2023-05-09T00:24:49.147Z,24.7
2023-05-09T00:30:41.740Z,24.2
2023-05-09T00:36:34.090Z,24.7
2023-05-09T00:42:27.037Z,25.9
2023-05-09T00:48:19.588Z,27.6
2023-05-09T00:54:14.325Z,27.7
2023-05-09T01:00:05.924Z,28.1
2023-05-09T01:05:58.718Z,30.6
2023-05-09T01:11:50.332Z,30.4
2023-05-09T01:17:43.096Z,30.2
2023-05-09T01:23:35.700Z,30.6
2023-05-09T01:29:28.914Z,30.3
2023-05-09T01:35:22.357Z,31.8
2023-05-09T01:41:14.940Z,32.1
2023-05-09T01:47:13.343Z,31.8
2023-05-09T01:53:04.560Z,31.2
2023-05-09T01:58:56.201Z,30.3
2023-05-09T02:04:47.855Z,30.6
2023-05-09T02:10:40.750Z,31.9
2023-05-09T02:16:34.498Z,30.5
2023-05-09T02:22:26.296Z,30.7
2023-05-09T02:28:19.020Z,30.8
2023-05-09T02:34:11.782Z,30.2
2023-05-09T02:40:14.608Z,29.7
2023-05-09T02:46:06.824Z,29.6
2023-05-09T02:51:59.421Z,29.7
2023-05-09T02:58:14.879Z,29.4
2023-05-09T03:04:05.464Z,29.7
2023-05-09T03:10:01.638Z,30.2
2023-05-09T03:15:53.036Z,30.4
2023-05-09T03:21:45.514Z,29.1
2023-05-09T03:27:37.439Z,29.8
2023-05-09T03:33:30.811Z,30.1
2023-05-09T03:39:23.769Z,30.5
2023-05-09T03:45:16.948Z,28.9
2023-05-09T03:51:10.070Z,30.4
2023-05-09T03:57:01.500Z,30.8
2023-05-09T04:02:54.243Z,29.4
2023-05-09T04:08:55.021Z,30.3
2023-05-09T04:14:49.913Z,30.9
2023-05-09T04:20:42.519Z,30.6
2023-05-09T04:26:35.635Z,30.1
2023-05-09T04:32:27.872Z,30
2023-05-09T04:38:21.202Z,30.1
2023-05-09T04:44:17.320Z,29.6
2023-05-09T04:50:08.240Z,31
2023-05-09T04:56:01.925Z,31.6
2023-05-09T05:01:51.855Z,30.9
2023-05-09T05:07:44.594Z,31.1
2023-05-09T05:13:35.860Z,32.6
2023-05-09T05:19:28.132Z,31.3
2023-05-09T05:25:22.064Z,30.6
2023-05-09T05:31:11.918Z,30.3
2023-05-09T05:37:04.070Z,30.7
2023-05-09T05:42:57.534Z,30.5
2023-05-09T05:48:49.796Z,31.5
2023-05-09T05:54:41.592Z,31.2
2023-05-09T06:00:33.035Z,30.3
2023-05-09T06:06:24.555Z,30
2023-05-09T06:12:15.890Z,29.7
2023-05-09T06:18:09.119Z,29.3
2023-05-09T06:30:35.542Z,25.6
2023-05-09T06:36:25.601Z,25.7
2023-05-09T06:42:18.917Z,24.7
2023-05-09T06:48:09.032Z,24.4
2023-05-09T06:54:00.801Z,23.8
2023-05-09T06:59:52.996Z,22.3
2023-05-09T07:05:47.894Z,22.6
2023-05-09T07:11:40.376Z,21.1
2023-05-09T07:17:33.949Z,19.6
2023-05-09T07:23:24.773Z,18.9
2023-05-09T07:29:15.662Z,16.9
2023-05-09T07:35:06.829Z,15.6
2023-05-09T07:40:58.727Z,14.9
2023-05-09T07:46:53.670Z,14.5
2023-05-09T07:52:45.995Z,13
2023-05-09T07:58:38.470Z,11.2
2023-05-09T08:04:31.136Z,12.4
2023-05-09T08:10:23.117Z,11.9
2023-05-09T08:16:18.440Z,11
2023-05-09T08:22:12.748Z,10.1
2023-05-09T08:28:05.465Z,9
2023-05-09T08:33:57.510Z,7.7
2023-05-09T08:39:49.676Z,3.1
2023-05-09T08:45:42.375Z,3.7
2023-05-09T08:51:38.027Z,3.2
2023-05-09T08:57:30.200Z,3.3
2023-05-09T09:03:22.234Z,3.7
2023-05-09T09:09:14.563Z,3.4
2023-05-09T09:15:08.914Z,3.9
2023-05-09T09:21:02.742Z,4.2
2023-05-09T09:26:54.307Z,4.7
2023-05-09T09:32:46.194Z,4.5
2023-05-09T09:39:47.843Z,4
2023-05-09T09:45:39.511Z,3.7
2023-05-09T09:51:32.555Z,4.2
2023-05-09T09:57:24.200Z,3.8
2023-05-09T10:03:16.258Z,4.1
2023-05-09T10:09:08.430Z,4.2
2023-05-09T10:15:00.483Z,3.8
2023-05-09T10:20:53.006Z,3.7
2023-05-09T10:26:45.114Z,3.4
2023-05-09T10:32:37.661Z,3.1
2023-05-09T10:38:31.432Z,2.8
2023-05-09T10:44:22.814Z,2.6
2023-05-09T10:50:15.043Z,2.6
2023-05-09T10:56:06.151Z,2.6
2023-05-09T11:02:00.630Z,2.9
2023-05-09T11:07:52.903Z,4.2
2023-05-09T11:13:46.085Z,3.6
2023-05-09T11:19:38.029Z,4.1
2023-05-09T11:25:29.507Z,4.1
2023-05-09T11:31:23.414Z,4.2
2023-05-09T11:37:16.588Z,5.1
2023-05-09T11:43:11.356Z,4.5
2023-05-09T11:52:32.629Z,4.2
2023-05-09T12:05:23.141Z,4.9
2023-05-09T12:11:14.665Z,6.7
2023-05-09T12:17:06.725Z,4.5
2023-05-09T12:22:58.957Z,4.4
2023-05-09T12:29:18.307Z,4.4
2023-05-09T12:42:06.399Z,4.2
2023-05-09T12:47:56.706Z,3.8
2023-05-09T12:53:50.948Z,3.4
2023-05-09T12:59:44.589Z,1.9
2023-05-09T13:05:37.198Z,1.9
2023-05-09T13:11:31.476Z,1.6
2023-05-09T13:17:23.216Z,2
2023-05-09T13:23:15.440Z,1.8
2023-05-09T13:29:07.717Z,2.3
2023-05-09T13:35:00.445Z,2.4
2023-05-09T13:40:54.393Z,2.3
2023-05-09T13:46:49.582Z,4
2023-05-09T13:52:40.843Z,3.2
2023-05-09T13:58:34.183Z,3.5
2023-05-09T14:04:26.209Z,3.7
2023-05-09T14:10:21.113Z,3.9
2023-05-09T14:16:13.400Z,3.7
2023-05-09T14:22:06.086Z,3.8
2023-05-09T14:28:00.163Z,3.8
2023-05-09T14:33:51.473Z,4.8
2023-05-09T14:39:45.968Z,4.9
2023-05-09T14:45:37.619Z,4.2
2023-05-09T14:51:30.142Z,4.7
2023-05-09T14:57:23.881Z,4.5
2023-05-09T15:03:15.114Z,4.2
2023-05-09T15:09:08.538Z,4.9
2023-05-09T15:14:59.693Z,3.4
2023-05-09T15:20:50.865Z,4.1
2023-05-09T15:26:43.364Z,3.9
2023-05-09T15:32:36.502Z,4.3
2023-05-09T15:38:27.756Z,4.6
2023-05-09T15:44:20.668Z,4.4
2023-05-09T15:50:12.051Z,8.2
2023-05-09T15:56:05.163Z,4.4
2023-05-09T16:01:59.718Z,5.7
2023-05-09T16:07:53.312Z,9.5
2023-05-09T16:13:45.507Z,4.3
2023-05-09T16:19:40.990Z,5
2023-05-09T16:25:36.059Z,4.9
2023-05-09T16:31:28.731Z,5.4
2023-05-09T16:37:20.585Z,5.4
2023-05-09T16:43:11.180Z,6.6
2023-05-09T16:49:04.075Z,5.7
2023-05-09T16:54:55.915Z,5.8
2023-05-09T17:00:50.794Z,5.3
2023-05-09T17:06:42.448Z,5.5
2023-05-09T17:12:34.824Z,5.8
2023-05-09T17:18:44.879Z,6.3
2023-05-09T17:24:37.225Z,6.5
2023-05-09T17:30:35.207Z,6.9
2023-05-09T17:36:35.203Z,8.1
2023-05-09T17:42:26.961Z,7.3
2023-05-09T17:48:23.751Z,6.8
2023-05-09T17:54:16.145Z,7.2
2023-05-09T18:00:07.460Z,7.2
2023-05-09T18:05:59.515Z,7.3
2023-05-09T18:11:55.475Z,7.2
2023-05-09T18:18:07.782Z,8.1
2023-05-09T18:23:58.718Z,8
2023-05-09T18:29:51.853Z,8.7
2023-05-09T18:35:43.794Z,8.1
2023-05-09T18:41:36.792Z,8.1
2023-05-09T18:47:30.314Z,7.7
2023-05-09T18:53:22.486Z,7.8
2023-05-09T18:59:14.966Z,4.7
2023-05-09T19:05:08.070Z,7
2023-05-09T19:11:07.110Z,7.7
2023-05-09T19:16:58.527Z,7
2023-05-09T19:22:50.792Z,6.2
2023-05-09T19:28:44.364Z,5.1
2023-05-09T19:35:45.228Z,4.1
2023-05-09T19:43:58.687Z,3.3
2023-05-09T19:49:47.955Z,2.7
2023-05-09T19:55:44.217Z,2.1
2023-05-09T20:01:39.097Z,1.9
2023-05-09T20:07:28.694Z,1.4
2023-05-09T20:13:25.986Z,2.1
2023-05-09T20:19:21.928Z,1.4
2023-05-09T20:27:34.292Z,1.1
2023-05-09T20:33:25.247Z,1
2023-05-09T20:39:25.153Z,1.1
2023-05-09T20:45:22.377Z,1.3
2023-05-09T20:51:14.906Z,0.7
2023-05-09T20:57:05.984Z,1.5
2023-05-09T21:03:00.473Z,0.8
2023-05-09T21:08:52.392Z,0.9
2023-05-09T21:14:43.449Z,0.6
2023-05-09T21:20:35.164Z,0.6
2023-05-09T21:26:27.970Z,0.3
2023-05-09T21:32:19.787Z,0.6
2023-05-09T21:38:12.270Z,0.4
2023-05-09T21:44:03.125Z,0.6
2023-05-09T21:50:00.664Z,0.5
2023-05-09T21:55:52.832Z,1.1
2023-05-09T22:01:47.509Z,0.4
2023-05-09T22:07:40.901Z,0.3
2023-05-09T22:13:31.374Z,0.4
2023-05-09T22:19:26.315Z,0.5
2023-05-09T22:25:16.776Z,0.6
2023-05-09T22:31:08.618Z,0.6
2023-05-09T22:37:04.305Z,0.6
2023-05-09T22:42:55.589Z,0.5
2023-05-09T22:48:46.791Z,0.7
2023-05-09T22:54:41.918Z,0.7
2023-05-09T23:00:36.289Z,0.7
2023-05-09T23:06:28.669Z,0.7
2023-05-09T23:12:18.853Z,0.4
2023-05-09T23:18:11.006Z,0.4
2023-05-09T23:24:03.000Z,0.5
2023-05-09T23:29:55.534Z,0.6
2023-05-09T23:35:47.683Z,0.5
2023-05-09T23:41:39.889Z,0.5
2023-05-09T23:47:32.718Z,0.4
2023-05-09T23:53:24.877Z,0.5
2023-05-09T23:59:17.078Z,0.4
